Aeroporto :
LOGIN :

Iscrizione | Disclaimer

   EN    FR    IT 

 










Sommario :    VFR   VFR Marginale   IFR   IFR Intensivo   IFR Molto Intensivo
Visibilità : 
Base nubi : 
>= 8 km
>= 3000ft
5 / 8 km
1000 / 3000 ft
1500m / 5 km
500 / 1000 ft
800 / 1500m
200 / 500 ft
< 800m
< 200 ft
Simboli :   Temporali  Nebbia  Neve Forte  Precipitazioni Forti  Vento > 20 kt
SIGMETs :   Varie  Temporali  Ghiacco  Turbolenza  Onda orograficha  Ceneri Vulcaniche






- Altitudine del aeroporto : 614 ft
- Codice IATA : CRL


EBCI - Charleroi

ULTIMO METAR :
  • 140750Z 26020G39KT 220V300 9000 -SHRA SCT010 BKN016 05/02 Q0991 TEMPO 29022G35KT

METARs OBSOLETI :
  • 140720Z 24016KT 9999 -SHRA FEW011 BKN016 05/03 Q0990 TEMPO 29022G35KT SHRA
  • 140650Z 24014KT 9999 SCT009 BKN016 05/03 Q0989 TEMPO 29022G35KT
  • 140620Z 25012KT 230V310 9999 FEW006 BKN009 05/03 Q0989 TEMPO 29022G35KT
  • 140550Z 26013KT 9999 FEW006 BKN009 05/03 Q0988 TEMPO 29022G35KT
  • 140520Z 27010KT 240V300 9999 FEW006 BKN009 05/03 Q0987 TEMPO 29022G35KT

TAF TAF EBCI
Valido dal 14 a 06 ore il 15 a 12 ore UTC


140500Z 1406/1512 25015G25KT FEW020TCU SCT040
PROB30
TEMPO 1411/1414 25022G35KT 4000 SHRA
BECMG 1418/1420 19010KT
BECMG 1423/1501 24020G35KT
TEMPO 1502/1507 24025G40KT 4000 RA SHRA BKN014



MetMap, La meteo Aeronautica in un colpo d'occhio ! - Copyright ORBIFLY Dicembre 2007 - Disclaimer

ORBIFLY MET'MAP TEAM :

Programmazione e sviluppo : Alexandra Zaïnal
Concezione : Baudouin d'Aumeries
Aiuto per la programmazione : Marc-Olivier Méhu
Supporto tecnico e logistico : Manuel Goepfert
Aiuto per la traduzione : Arnaldo La Scala

Contatto : metmap@orbifly.com




FONTI E CREDITI :

   NOAA